Wilton, AL (35187)

10:06 AM CST on December 06, 2016 (GMT -0600)
Montevallo | | Change Station

Elev 502 ft 33.04 °N, 86.88 °W | Updated 11 seconds ago

Overcast
Overcast
60.1 °F
Feels Like 60.1 °F
N
5.6
Wind Variable Wind from NW
Gusts 7.4 mph

Today
High -- | Low -- °F
--% Chance of Precip.
Yesterday
High -- | Low -- °F
Precip. -- in
Pressure 29.77 in
Visibility 10.0 miles
Clouds Few 900 ft
Mostly Cloudy 1300 ft
Overcast 2900 ft
Dew Point 40 °F
Humidity 47%
Rainfall 0.05 in
Snow Depth Not available.
6:37 AM 4:40 PM
Waxing Crescent, 43% visible
SPECI KEET 061557Z AUTO VRB05G20KT 10SM FEW009 BKN013 OVC029 16/14 A2977 RMK AO2 T01610144
Pressure 29.77 in
Visibility 10.0 miles
Clouds Few 900 ft
Mostly Cloudy 1300 ft
Overcast 2900 ft
Dew Point 40 °F
Humidity 47%
Rainfall 0.05 in
Snow Depth Not available.
6:37 AM 4:40 PM
Waxing Crescent, 43% visible
SPECI KEET 061557Z AUTO VRB05G20KT 10SM FEW009 BKN013 OVC029 16/14 A2977 RMK AO2 T01610144

10-Day Weather Forecast

Almanac

Astronomy

Dec. 06, 2016 Rise Set
Actual Time
Civil Twilight
Nautical Twilight
Astronomical Twilight
Moon
Length of Visible Light
Length of Day
Tomorrow will be .
, % of the Moon is Illuminated

Today's Extremes

State Highs State Lows

Community

WunderPhotos

Upload Photos

1,955,965 photos uploaded!

WunderBlog® & News

Nearby

Air Quality

  Air Quality AQ Index Pollutant
Not available.

Snow Depth

Station Depth Elevation

Earthquake Activity

City Distance Mag. Time & Date
Minimum magnitude displayed is 2.5.

Coastal Water Temperatures

Place Temperature

Stations

Nearby Weather Stations

Station Location Temp. Windchill Dew Point Humidity Wind Precip. Elev Updated Type
                   

Watches & Warnings

There are currently no watches in effect.